CA-0088 weather

Navan Bearbrook Airport
Ottawa, Ontario, Canada

Public forecast

Using degrees Celsius for public forecast. Weather courtesy of forecast.io.

METAR (pilot weather report)

Closest report is Ottawa / Gatineau Airport, 13.7 nm (25.3 km) NW. Retrieved 2019/05/25 20:00 UTC (37 minutes ago):

CYND 252000Z 12003KT 15SM -SHRA BKN020 OVC031 15/13 A2992 RMK SC6SC2 CVCTV CLD EMBD CIG RAG PRESFR SLP136 DENSITY ALT 300FT

TAF (pilot weather forecast)

Closest forecast is Ottawa / Gatineau Airport, 13.7 nm (25.3 km) NW. Retrieved 2019/05/25 18:00 UTC (3 hours ago):

TAF CYND 251738Z 2518/2601 18010KT P6SM -SHRA SCT020 BKN040 TEMPO 2518/2520 5SM -SHRA BR BKN020 OVC040 FM252000 17012G22KT 6SM -SHRA BR SCT015 OVC030 TEMPO 2520/2601 4SM SHRA BR VCTS SCT007 BKN015 OVC030CB RMK NXT FCST WILL BE ISSUED AT 261245Z